createdAt,value
2022-12-22T00:00:09.306Z,9
2022-12-22T00:01:12.100Z,9.1
2022-12-22T00:02:15.616Z,9.1
2022-12-22T00:03:20.288Z,9
2022-12-22T00:04:23.602Z,9
2022-12-22T00:05:27.494Z,9.1
2022-12-22T00:06:31.222Z,9
2022-12-22T00:07:34.018Z,9
2022-12-22T00:08:37.738Z,9
2022-12-22T00:09:41.112Z,9
2022-12-22T00:10:44.480Z,9
2022-12-22T00:11:47.662Z,9
2022-12-22T00:12:50.369Z,9
2022-12-22T00:13:53.740Z,9
2022-12-22T00:14:56.204Z,9
2022-12-22T00:15:59.277Z,9
2022-12-22T00:17:02.829Z,9
2022-12-22T00:18:06.567Z,9
2022-12-22T00:19:09.365Z,9
2022-12-22T00:20:19.401Z,9
2022-12-22T00:21:23.186Z,9
2022-12-22T00:22:26.215Z,9
2022-12-22T00:23:28.758Z,9
2022-12-22T00:24:32.303Z,9
2022-12-22T00:25:35.026Z,9
2022-12-22T00:26:38.483Z,9
2022-12-22T00:27:46.566Z,9
2022-12-22T00:28:49.988Z,9
2022-12-22T00:29:52.716Z,9
2022-12-22T00:30:56.272Z,9
2022-12-22T00:31:59.204Z,8.9
2022-12-22T00:33:01.927Z,8.9
2022-12-22T00:34:05.578Z,8.9
2022-12-22T00:35:08.404Z,8.9
2022-12-22T00:36:12.433Z,8.9
2022-12-22T00:37:16.616Z,8.9
2022-12-22T00:38:20.367Z,8.9
2022-12-22T00:39:23.171Z,8.9
2022-12-22T00:40:25.912Z,8.9
2022-12-22T00:41:28.995Z,8.9
2022-12-22T00:42:31.950Z,8.9
2022-12-22T00:43:34.981Z,8.9
2022-12-22T00:44:38.469Z,8.9
2022-12-22T00:45:41.409Z,8.9
2022-12-22T00:46:44.153Z,8.9
2022-12-22T00:47:47.051Z,8.9
2022-12-22T00:48:50.221Z,8.9
2022-12-22T00:49:53.085Z,8.9
2022-12-22T00:50:56.226Z,8.9
2022-12-22T00:51:59.212Z,8.9
2022-12-22T00:53:03.357Z,8.9
2022-12-22T00:54:06.157Z,8.8
2022-12-22T00:55:08.684Z,8.9
2022-12-22T00:56:12.324Z,8.9
2022-12-22T00:57:15.836Z,8.9
2022-12-22T00:58:18.950Z,8.9
2022-12-22T00:59:21.971Z,8.9
2022-12-22T01:00:25.463Z,8.9
2022-12-22T01:01:29.127Z,8.9
2022-12-22T01:02:33.418Z,8.9
2022-12-22T01:03:37.549Z,8.9
2022-12-22T01:04:40.080Z,8.9
2022-12-22T01:05:43.420Z,9
2022-12-22T01:06:46.603Z,9
2022-12-22T01:07:49.114Z,9
2022-12-22T01:08:53.275Z,8.9
2022-12-22T01:09:56.351Z,9
2022-12-22T01:10:59.132Z,8.9
2022-12-22T01:12:01.968Z,8.9
2022-12-22T01:13:04.119Z,9
2022-12-22T01:14:07.519Z,8.9
2022-12-22T01:15:10.653Z,9
2022-12-22T01:16:13.649Z,9
2022-12-22T01:17:16.775Z,8.9
2022-12-22T01:18:19.576Z,9
2022-12-22T01:19:23.021Z,9
2022-12-22T01:20:26.429Z,8.9
2022-12-22T01:21:29.165Z,9
2022-12-22T01:22:32.380Z,9
2022-12-22T01:23:35.735Z,9
2022-12-22T01:24:39.588Z,9
2022-12-22T01:25:43.251Z,9
2022-12-22T01:26:46.540Z,9
2022-12-22T01:27:49.277Z,9
2022-12-22T01:28:52.563Z,9
2022-12-22T01:29:55.450Z,9
2022-12-22T01:30:59.175Z,9
2022-12-22T01:32:02.010Z,9
2022-12-22T01:33:04.813Z,9
2022-12-22T01:34:08.451Z,9
2022-12-22T01:35:11.580Z,9
2022-12-22T01:36:14.721Z,9
2022-12-22T01:37:18.065Z,9
2022-12-22T01:38:21.178Z,9
2022-12-22T01:39:23.997Z,9
2022-12-22T01:40:27.857Z,9
2022-12-22T01:41:30.655Z,9
2022-12-22T01:42:33.370Z,9
2022-12-22T01:43:36.792Z,8.9
2022-12-22T01:44:40.174Z,9
2022-12-22T01:45:42.710Z,9
2022-12-22T01:46:46.039Z,9
2022-12-22T01:47:49.696Z,9
2022-12-22T01:48:52.757Z,9
2022-12-22T01:49:56.039Z,8.9
2022-12-22T01:50:59.391Z,9
2022-12-22T01:52:01.873Z,9
2022-12-22T01:53:04.612Z,9
2022-12-22T01:54:07.802Z,9
2022-12-22T01:55:11.116Z,9
2022-12-22T01:56:15.277Z,9
2022-12-22T01:57:18.635Z,9
2022-12-22T01:58:21.995Z,9
2022-12-22T01:59:25.351Z,9
2022-12-22T02:00:28.675Z,9
2022-12-22T02:01:32.851Z,9
2022-12-22T02:02:36.999Z,9
2022-12-22T02:03:41.188Z,9
2022-12-22T02:04:44.654Z,9
2022-12-22T02:05:48.014Z,9
2022-12-22T02:07:00.908Z,9
2022-12-22T02:08:04.597Z,9
2022-12-22T02:09:07.953Z,9.1
2022-12-22T02:10:10.826Z,9
2022-12-22T02:11:14.555Z,9.1
2022-12-22T02:12:18.405Z,9.1
2022-12-22T02:13:21.482Z,9.1
2022-12-22T02:14:31.251Z,9.1
2022-12-22T02:15:34.005Z,9.1
2022-12-22T02:16:37.510Z,9.1
2022-12-22T02:17:40.637Z,9.1
2022-12-22T02:18:43.847Z,9.1
2022-12-22T02:19:46.346Z,9.1
2022-12-22T02:20:49.431Z,9.1
2022-12-22T02:21:52.843Z,9.2
2022-12-22T02:22:55.834Z,9.2
2022-12-22T02:23:58.402Z,9.2
2022-12-22T02:25:01.760Z,9.2
2022-12-22T02:26:05.541Z,9.2
2022-12-22T02:27:08.043Z,9.2
2022-12-22T02:28:11.934Z,9.2
2022-12-22T02:29:14.690Z,9.2
2022-12-22T02:30:17.457Z,9.2
2022-12-22T02:31:21.065Z,9.2
2022-12-22T02:32:24.635Z,9.2
2022-12-22T02:33:28.052Z,9.2
2022-12-22T02:34:30.844Z,9.2
2022-12-22T02:35:34.548Z,9.2
2022-12-22T02:36:37.512Z,9.2
2022-12-22T02:37:40.847Z,9.2
2022-12-22T02:38:43.902Z,9.2
2022-12-22T02:39:47.052Z,9.2
2022-12-22T02:40:49.558Z,9.2
2022-12-22T02:41:52.368Z,9.2
2022-12-22T02:42:55.729Z,9.2
2022-12-22T02:43:59.636Z,9.2
2022-12-22T02:45:02.649Z,9.2
2022-12-22T02:46:06.258Z,9.3
2022-12-22T02:47:08.887Z,9.2
2022-12-22T02:48:11.995Z,9.3
2022-12-22T02:49:14.439Z,9.3
2022-12-22T02:50:17.447Z,9.2
2022-12-22T02:51:20.727Z,9.3
2022-12-22T02:52:23.257Z,9.3
2022-12-22T02:53:26.300Z,9.2
2022-12-22T02:54:29.743Z,9.3
2022-12-22T02:55:33.448Z,9.3
2022-12-22T02:56:36.909Z,9.3
2022-12-22T02:57:39.523Z,9.3
2022-12-22T02:58:42.988Z,9.3
2022-12-22T02:59:46.649Z,9.3
2022-12-22T03:00:50.004Z,9.3
2022-12-22T03:01:53.655Z,9.3
2022-12-22T03:02:58.588Z,9.3
2022-12-22T03:04:02.456Z,9.3
2022-12-22T03:05:05.814Z,9.3
2022-12-22T03:06:09.537Z,9.3
2022-12-22T03:07:12.262Z,9.3
2022-12-22T03:08:15.127Z,9.3
2022-12-22T03:09:18.017Z,9.3
2022-12-22T03:10:22.039Z,9.3
2022-12-22T03:11:25.488Z,9.3
2022-12-22T03:12:28.598Z,9.4
2022-12-22T03:13:32.051Z,9.3
2022-12-22T03:14:35.131Z,9.3
2022-12-22T03:15:39.290Z,9.3
2022-12-22T03:16:43.147Z,9.4
2022-12-22T03:17:46.615Z,9.4
2022-12-22T03:18:49.723Z,9.4
2022-12-22T03:19:52.790Z,9.4
2022-12-22T03:20:55.248Z,9.4
2022-12-22T03:21:58.598Z,9.4
2022-12-22T03:23:01.945Z,9.4
2022-12-22T03:24:04.500Z,9.4
2022-12-22T03:25:06.384Z,9.5
2022-12-22T03:26:09.466Z,9.4
2022-12-22T03:27:12.960Z,9.5
2022-12-22T03:28:16.023Z,9.5
2022-12-22T03:29:19.017Z,9.5
2022-12-22T03:30:21.249Z,9.5
2022-12-22T03:31:25.274Z,9.4
2022-12-22T03:32:28.193Z,9.5
2022-12-22T03:33:30.725Z,9.4
2022-12-22T03:34:33.170Z,9.5
2022-12-22T03:35:36.533Z,9.4
2022-12-22T03:36:39.943Z,9.5
2022-12-22T03:37:43.141Z,9.4
2022-12-22T03:38:46.124Z,9.5
2022-12-22T03:39:48.667Z,9.5
2022-12-22T03:40:52.035Z,9.5
2022-12-22T03:41:55.303Z,9.5
2022-12-22T03:42:57.838Z,9.5
2022-12-22T03:44:00.581Z,9.5
2022-12-22T03:45:03.702Z,9.5
2022-12-22T03:46:06.530Z,9.5
2022-12-22T03:47:10.639Z,9.5
2022-12-22T03:48:13.740Z,9.5
2022-12-22T03:49:16.870Z,9.5
2022-12-22T03:50:19.764Z,9.5
2022-12-22T03:51:22.035Z,9.5
2022-12-22T03:52:25.429Z,9.5
2022-12-22T03:53:28.429Z,9.5
2022-12-22T03:54:31.776Z,9.5
2022-12-22T03:55:35.219Z,9.6
2022-12-22T03:56:37.984Z,9.5
2022-12-22T03:57:41.353Z,9.6
2022-12-22T03:58:44.137Z,9.6
2022-12-22T03:59:47.138Z,9.5
2022-12-22T04:00:50.810Z,9.6
2022-12-22T04:01:54.984Z,9.6
2022-12-22T04:03:00.167Z,9.6
2022-12-22T04:04:04.846Z,9.6
2022-12-22T04:05:07.583Z,9.6
2022-12-22T04:06:10.392Z,9.6
2022-12-22T04:07:13.136Z,9.6
2022-12-22T04:08:15.880Z,9.6
2022-12-22T04:09:18.602Z,9.7
2022-12-22T04:10:21.869Z,9.7
2022-12-22T04:11:24.411Z,9.7
2022-12-22T04:12:27.517Z,9.7
2022-12-22T04:13:30.906Z,9.7
2022-12-22T04:14:36.090Z,9.7
2022-12-22T04:15:39.484Z,9.7
2022-12-22T04:16:43.057Z,9.6
2022-12-22T04:17:46.097Z,9.6
2022-12-22T04:18:50.187Z,9.6
2022-12-22T04:19:53.624Z,9.6
2022-12-22T04:20:56.844Z,9.6
2022-12-22T04:22:00.626Z,9.6
2022-12-22T04:23:03.948Z,9.6
2022-12-22T04:24:07.752Z,9.6
2022-12-22T04:25:10.629Z,9.6
2022-12-22T04:26:14.300Z,9.6
2022-12-22T04:27:17.453Z,9.6
2022-12-22T04:28:20.531Z,9.6
2022-12-22T04:29:23.243Z,9.6
2022-12-22T04:30:25.859Z,9.6
2022-12-22T04:31:28.800Z,9.6
2022-12-22T04:32:31.747Z,9.6
2022-12-22T04:33:34.899Z,9.6
2022-12-22T04:34:38.488Z,9.7
2022-12-22T04:35:41.463Z,9.6
2022-12-22T04:36:44.639Z,9.7
2022-12-22T04:37:47.643Z,9.7
2022-12-22T04:38:50.715Z,9.6
2022-12-22T04:39:53.208Z,9.6
2022-12-22T04:40:55.671Z,9.6
2022-12-22T04:41:58.846Z,9.6
2022-12-22T04:43:01.981Z,9.7
2022-12-22T04:44:05.168Z,9.7
2022-12-22T04:45:08.034Z,9.7
2022-12-22T04:46:11.080Z,9.7
2022-12-22T04:47:14.967Z,9.7
2022-12-22T04:48:17.676Z,9.7
2022-12-22T04:49:20.085Z,9.7
2022-12-22T04:50:24.305Z,9.7
2022-12-22T04:51:27.189Z,9.7
2022-12-22T04:52:30.006Z,9.7
2022-12-22T04:53:32.748Z,9.7
2022-12-22T04:54:35.942Z,9.7
2022-12-22T04:55:39.605Z,9.7
2022-12-22T04:56:41.858Z,9.7
2022-12-22T04:57:44.613Z,9.7
2022-12-22T04:58:47.422Z,9.8
2022-12-22T04:59:50.223Z,9.8
2022-12-22T05:00:53.145Z,9.8
2022-12-22T05:01:57.313Z,9.8
2022-12-22T05:03:01.914Z,9.8
2022-12-22T05:04:04.986Z,9.8
2022-12-22T05:05:07.805Z,9.8
2022-12-22T05:06:11.747Z,9.8
2022-12-22T05:07:14.758Z,9.8
2022-12-22T05:08:17.876Z,9.8
2022-12-22T05:09:21.182Z,9.8
2022-12-22T05:10:24.096Z,9.8
2022-12-22T05:11:26.824Z,9.8
2022-12-22T05:12:30.099Z,9.8
2022-12-22T05:13:32.375Z,9.8
2022-12-22T05:14:36.059Z,9.9
2022-12-22T05:15:39.078Z,9.9
2022-12-22T05:16:42.069Z,9.9
2022-12-22T05:17:45.436Z,9.9
2022-12-22T05:18:48.180Z,9.9
2022-12-22T05:19:51.961Z,9.9
2022-12-22T05:20:55.229Z,9.8
2022-12-22T05:21:59.052Z,9.9
2022-12-22T05:23:01.615Z,9.9
2022-12-22T05:24:04.990Z,9.9
2022-12-22T05:25:08.119Z,9.9
2022-12-22T05:26:11.176Z,9.9
2022-12-22T05:27:14.299Z,9.9
2022-12-22T05:28:17.026Z,9.9
2022-12-22T05:29:20.380Z,9.9
2022-12-22T05:30:23.630Z,9.9
2022-12-22T05:31:27.366Z,9.9
2022-12-22T05:32:31.269Z,9.9
2022-12-22T05:33:34.396Z,9.9
2022-12-22T05:34:38.015Z,10
2022-12-22T05:35:40.749Z,9.9
2022-12-22T05:36:43.201Z,9.9
2022-12-22T05:37:47.423Z,9.9
2022-12-22T05:38:50.217Z,9.9
2022-12-22T05:39:52.769Z,9.9
2022-12-22T05:41:05.393Z,9.9
2022-12-22T05:42:08.167Z,9.9
2022-12-22T05:43:10.636Z,9.9
2022-12-22T05:44:14.004Z,10
2022-12-22T05:45:17.405Z,9.9
2022-12-22T05:46:20.785Z,10
2022-12-22T05:47:24.632Z,10
2022-12-22T05:48:39.940Z,10
2022-12-22T05:49:43.944Z,10
2022-12-22T05:50:47.427Z,10
2022-12-22T05:51:50.255Z,10
2022-12-22T05:52:54.088Z,10
2022-12-22T05:53:56.956Z,10
2022-12-22T05:55:00.388Z,10
2022-12-22T05:56:03.519Z,10.1
2022-12-22T05:57:06.011Z,10.1
2022-12-22T05:58:08.446Z,10.1
2022-12-22T05:59:11.168Z,10.1
2022-12-22T06:00:14.181Z,10.1
2022-12-22T06:01:17.313Z,10.1
2022-12-22T06:02:20.594Z,10.1
2022-12-22T06:03:25.923Z,10.1
2022-12-22T06:04:30.169Z,10.1
2022-12-22T06:05:33.887Z,10.1
2022-12-22T06:06:36.388Z,10.1
2022-12-22T06:07:39.734Z,10
2022-12-22T06:08:43.581Z,10.1
2022-12-22T06:09:46.035Z,10.1
2022-12-22T06:10:48.801Z,10
2022-12-22T06:11:51.569Z,10.1
2022-12-22T06:12:54.904Z,10
2022-12-22T06:13:58.258Z,10
2022-12-22T06:15:02.040Z,10
2022-12-22T06:16:04.690Z,10
2022-12-22T06:17:07.756Z,10
2022-12-22T06:18:11.199Z,10
2022-12-22T06:19:14.915Z,10
2022-12-22T06:20:17.663Z,10
2022-12-22T06:21:21.113Z,10
2022-12-22T06:22:23.917Z,10
2022-12-22T06:23:27.200Z,10
2022-12-22T06:24:31.356Z,10
2022-12-22T06:25:35.087Z,10
2022-12-22T06:26:37.868Z,10
2022-12-22T06:27:41.216Z,10
2022-12-22T06:28:44.323Z,9.9
2022-12-22T06:29:47.329Z,10
2022-12-22T06:30:50.792Z,10
2022-12-22T06:31:53.444Z,10
2022-12-22T06:32:56.744Z,10
2022-12-22T06:33:59.843Z,9.9
2022-12-22T06:35:02.349Z,10
2022-12-22T06:36:05.570Z,9.9
2022-12-22T06:37:08.621Z,10
2022-12-22T06:38:11.334Z,9.9
2022-12-22T06:39:14.748Z,10
2022-12-22T06:40:18.912Z,9.9
2022-12-22T06:41:22.003Z,9.9
2022-12-22T06:42:25.107Z,9.9
2022-12-22T06:43:27.924Z,9.9
2022-12-22T06:44:31.427Z,9.9
2022-12-22T06:45:34.277Z,9.9
2022-12-22T06:46:37.286Z,9.9
2022-12-22T06:47:40.486Z,9.9
2022-12-22T06:48:42.661Z,9.9
2022-12-22T06:49:46.368Z,9.9
2022-12-22T06:50:49.775Z,9.9
2022-12-22T06:51:52.831Z,9.8
2022-12-22T06:52:55.700Z,9.8
2022-12-22T06:53:58.771Z,9.8
2022-12-22T06:55:02.149Z,9.8
2022-12-22T06:56:06.251Z,9.8
2022-12-22T06:57:09.321Z,9.8
2022-12-22T06:58:12.715Z,9.8
2022-12-22T06:59:15.842Z,9.8
2022-12-22T07:00:18.932Z,9.8
2022-12-22T07:01:22.493Z,9.8
2022-12-22T07:02:26.456Z,9.8
2022-12-22T07:03:31.059Z,9.8
2022-12-22T07:04:34.201Z,9.8
2022-12-22T07:05:37.614Z,9.8
2022-12-22T07:06:40.706Z,9.8
2022-12-22T07:07:43.738Z,9.8
2022-12-22T07:08:46.891Z,9.8
2022-12-22T07:09:50.275Z,9.8
2022-12-22T07:10:53.016Z,9.8
2022-12-22T07:11:56.612Z,9.8
2022-12-22T07:13:00.246Z,9.8
2022-12-22T07:14:03.351Z,9.9
2022-12-22T07:15:06.485Z,9.9
2022-12-22T07:16:09.511Z,9.9
2022-12-22T07:17:13.515Z,9.9
2022-12-22T07:18:16.571Z,9.9
2022-12-22T07:19:20.071Z,9.9
2022-12-22T07:20:23.172Z,9.9
2022-12-22T07:21:26.153Z,9.9
2022-12-22T07:22:31.877Z,9.9
2022-12-22T07:23:34.613Z,9.9
2022-12-22T07:24:38.409Z,9.9
2022-12-22T07:25:40.684Z,9.9
2022-12-22T07:26:44.063Z,9.9
2022-12-22T07:27:47.910Z,9.9
2022-12-22T07:28:51.042Z,9.9
2022-12-22T07:29:54.814Z,9.9
2022-12-22T07:30:58.329Z,9.8
2022-12-22T07:32:02.136Z,9.8
2022-12-22T07:33:05.219Z,9.8
2022-12-22T07:34:07.954Z,9.8
2022-12-22T07:35:10.949Z,9.8
2022-12-22T07:36:14.116Z,9.7
2022-12-22T07:37:17.203Z,9.8
2022-12-22T07:38:20.533Z,9.7
2022-12-22T07:39:23.360Z,9.7
2022-12-22T07:40:26.278Z,9.7
2022-12-22T07:41:29.954Z,9.7
2022-12-22T07:42:33.013Z,9.7
2022-12-22T07:43:37.106Z,9.7
2022-12-22T07:44:40.230Z,9.7
2022-12-22T07:45:43.076Z,9.8
2022-12-22T07:46:46.444Z,9.8
2022-12-22T07:47:49.540Z,9.8
2022-12-22T07:48:52.902Z,9.8
2022-12-22T07:49:56.245Z,9.8
2022-12-22T07:50:58.960Z,9.8
2022-12-22T07:52:01.792Z,9.8
2022-12-22T07:53:04.520Z,9.8
2022-12-22T07:54:07.927Z,9.9
2022-12-22T07:55:11.195Z,9.8
2022-12-22T07:56:14.267Z,9.9
2022-12-22T07:57:16.978Z,9.9
2022-12-22T07:58:19.745Z,9.9
2022-12-22T07:59:23.547Z,9.9
2022-12-22T08:00:26.702Z,9.9
2022-12-22T08:01:30.568Z,9.9
2022-12-22T08:02:40.527Z,9.9
2022-12-22T08:03:44.033Z,9.9
2022-12-22T08:04:47.136Z,9.9
2022-12-22T08:05:50.729Z,10
2022-12-22T08:06:53.848Z,10
2022-12-22T08:07:56.557Z,10
2022-12-22T08:08:59.020Z,9.9
2022-12-22T08:10:02.581Z,10
2022-12-22T08:11:06.160Z,10
2022-12-22T08:12:09.589Z,10
2022-12-22T08:13:13.067Z,10
2022-12-22T08:14:16.999Z,10
2022-12-22T08:15:20.688Z,10
2022-12-22T08:16:24.049Z,10
2022-12-22T08:17:27.396Z,10.1
2022-12-22T08:18:30.787Z,10
2022-12-22T08:19:33.814Z,10
2022-12-22T08:20:36.432Z,10.1
2022-12-22T08:21:39.154Z,10
2022-12-22T08:22:54.281Z,10
2022-12-22T08:23:57.717Z,10
2022-12-22T08:25:00.886Z,10
2022-12-22T08:26:04.628Z,10
2022-12-22T08:27:08.064Z,10
2022-12-22T08:28:11.103Z,10
2022-12-22T08:29:14.403Z,10
2022-12-22T08:30:17.854Z,10
2022-12-22T08:31:21.913Z,10
2022-12-22T08:32:25.187Z,10
2022-12-22T08:33:28.577Z,10
2022-12-22T08:34:32.069Z,10
2022-12-22T08:35:34.779Z,10
2022-12-22T08:36:37.513Z,10
2022-12-22T08:37:40.721Z,10
2022-12-22T08:38:44.533Z,9.9
2022-12-22T08:39:47.786Z,10
2022-12-22T08:40:50.269Z,10
2022-12-22T08:41:53.241Z,10
2022-12-22T08:42:56.231Z,10
2022-12-22T08:43:59.182Z,10
2022-12-22T08:45:02.006Z,10
2022-12-22T08:46:05.524Z,10
2022-12-22T08:47:18.068Z,10
2022-12-22T08:48:21.149Z,10
2022-12-22T08:49:24.896Z,10
2022-12-22T08:50:28.652Z,10.1
2022-12-22T08:51:32.427Z,10
2022-12-22T08:52:35.208Z,10.1
2022-12-22T08:54:07.345Z,10
2022-12-22T08:55:10.579Z,10.1
2022-12-22T08:56:13.493Z,10.1
2022-12-22T08:57:16.737Z,10.1
2022-12-22T08:58:20.253Z,10.1
2022-12-22T08:59:24.308Z,10.1
2022-12-22T09:00:27.028Z,10
2022-12-22T09:01:30.678Z,10.1
2022-12-22T09:02:36.030Z,10.1
2022-12-22T09:03:40.106Z,10
2022-12-22T09:04:43.775Z,10
2022-12-22T09:05:46.249Z,10
2022-12-22T09:06:49.333Z,10
2022-12-22T09:07:53.004Z,10
2022-12-22T09:08:55.789Z,10
2022-12-22T09:09:59.855Z,10.1
2022-12-22T09:11:02.580Z,10
2022-12-22T09:12:05.910Z,10.1
2022-12-22T09:13:08.693Z,10
2022-12-22T09:14:12.028Z,10
2022-12-22T09:15:15.884Z,10.1
2022-12-22T09:16:19.221Z,10.1
2022-12-22T09:17:22.520Z,10.1
2022-12-22T09:18:26.689Z,10.1
2022-12-22T09:19:30.087Z,10.1
2022-12-22T09:20:32.929Z,10.1
2022-12-22T09:21:36.577Z,10.1
2022-12-22T09:22:39.684Z,10.1
2022-12-22T09:23:42.232Z,10.1
2022-12-22T09:24:45.048Z,10.1
2022-12-22T09:25:48.059Z,10.2
2022-12-22T09:26:51.436Z,10.1
2022-12-22T09:27:54.483Z,10.2
2022-12-22T09:28:57.507Z,10.2
2022-12-22T09:30:00.896Z,10.2
2022-12-22T09:31:04.420Z,10.2
2022-12-22T09:32:08.025Z,10.2
2022-12-22T09:33:11.661Z,10.2
2022-12-22T09:34:19.491Z,10.2
2022-12-22T09:35:22.656Z,10.2
2022-12-22T09:36:26.126Z,10.2
2022-12-22T09:37:29.479Z,10.2
2022-12-22T09:38:32.929Z,10.3
2022-12-22T09:39:36.041Z,10.3
2022-12-22T09:40:39.237Z,10.3
2022-12-22T09:41:42.558Z,10.3
2022-12-22T09:42:45.584Z,10.3
2022-12-22T09:43:48.381Z,10.4
2022-12-22T09:44:51.518Z,10.4
2022-12-22T09:45:54.450Z,10.3
2022-12-22T09:46:58.094Z,10.4
2022-12-22T09:48:01.402Z,10.4
2022-12-22T09:49:04.455Z,10.4
2022-12-22T09:50:08.561Z,10.4
2022-12-22T09:51:11.272Z,10.4
2022-12-22T09:52:14.476Z,10.4
2022-12-22T09:53:17.458Z,10.4
2022-12-22T09:54:20.320Z,10.4
2022-12-22T09:55:23.417Z,10.4
2022-12-22T09:56:26.637Z,10.4
2022-12-22T09:57:30.415Z,10.4
2022-12-22T09:58:33.886Z,10.5
2022-12-22T09:59:36.984Z,10.5
2022-12-22T10:00:40.741Z,10.5
2022-12-22T10:01:43.989Z,10.5
2022-12-22T10:02:48.207Z,10.5
2022-12-22T10:04:01.496Z,10.5
2022-12-22T10:05:04.764Z,10.6
2022-12-22T10:06:08.965Z,10.5
2022-12-22T10:07:12.369Z,10.6
2022-12-22T10:08:15.473Z,10.5
2022-12-22T10:09:52.348Z,10.6
2022-12-22T10:10:55.490Z,10.6
2022-12-22T10:11:59.291Z,10.6
2022-12-22T10:13:02.405Z,10.6
2022-12-22T10:14:05.292Z,10.6
2022-12-22T10:15:07.803Z,10.6
2022-12-22T10:16:10.382Z,10.6
2022-12-22T10:17:13.518Z,10.6
2022-12-22T10:18:17.184Z,10.7
2022-12-22T10:19:22.283Z,10.7
2022-12-22T10:20:26.670Z,10.6
2022-12-22T10:21:30.716Z,10.7
2022-12-22T10:22:34.069Z,10.7
2022-12-22T10:23:37.158Z,10.7
2022-12-22T10:24:41.114Z,10.7
2022-12-22T10:26:31.020Z,10.7
2022-12-22T10:27:49.839Z,10.6
2022-12-22T10:28:55.051Z,10.6
2022-12-22T10:29:58.170Z,10.7
2022-12-22T10:31:01.599Z,10.7
2022-12-22T10:32:04.700Z,10.7
2022-12-22T10:33:08.214Z,10.7
2022-12-22T10:34:11.929Z,10.7
2022-12-22T10:35:14.940Z,10.7
2022-12-22T10:36:18.116Z,10.7
2022-12-22T10:37:22.417Z,10.7
2022-12-22T10:38:25.669Z,10.7
2022-12-22T10:39:29.736Z,10.7
2022-12-22T10:40:34.541Z,10.7
2022-12-22T10:41:37.285Z,10.7
2022-12-22T10:42:41.141Z,10.7
2022-12-22T10:43:44.544Z,10.7
2022-12-22T10:44:47.890Z,10.8
2022-12-22T10:45:51.080Z,10.8
2022-12-22T10:46:54.436Z,10.8
2022-12-22T10:47:58.277Z,10.8
2022-12-22T10:49:01.101Z,10.8
2022-12-22T10:50:04.454Z,10.8
2022-12-22T10:51:07.806Z,10.8
2022-12-22T10:52:11.816Z,10.8
2022-12-22T10:53:16.027Z,10.8
2022-12-22T10:54:19.385Z,10.8
2022-12-22T10:55:22.436Z,10.8
2022-12-22T10:56:25.673Z,10.8
2022-12-22T10:57:28.807Z,10.8
2022-12-22T10:58:32.478Z,10.8
2022-12-22T10:59:35.637Z,10.8
2022-12-22T11:00:42.553Z,10.8
2022-12-22T11:01:57.273Z,10.8
2022-12-22T11:03:04.319Z,10.8
2022-12-22T11:04:09.913Z,10.8
2022-12-22T11:05:14.297Z,10.8
2022-12-22T11:06:17.051Z,10.9
2022-12-22T11:07:19.522Z,10.9
2022-12-22T11:08:23.616Z,10.9
2022-12-22T11:09:36.626Z,10.9
2022-12-22T11:10:40.196Z,10.9
2022-12-22T11:11:43.563Z,10.9
2022-12-22T11:12:47.601Z,10.9
2022-12-22T11:13:50.692Z,10.8
2022-12-22T11:14:53.729Z,10.8
2022-12-22T11:15:57.451Z,10.8
2022-12-22T11:17:01.116Z,10.8
2022-12-22T11:18:04.739Z,10.8
2022-12-22T11:19:08.389Z,10.9
2022-12-22T11:20:10.840Z,10.8
2022-12-22T11:21:24.858Z,10.9
2022-12-22T11:22:29.124Z,10.9
2022-12-22T11:23:33.286Z,10.9
2022-12-22T11:24:37.024Z,10.9
2022-12-22T11:25:40.342Z,10.9
2022-12-22T11:26:43.424Z,10.9
2022-12-22T11:27:47.524Z,10.9
2022-12-22T11:28:50.947Z,10.9
2022-12-22T11:29:54.936Z,10.9
2022-12-22T11:30:58.294Z,10.9
2022-12-22T11:32:01.830Z,10.9
2022-12-22T11:33:05.493Z,10.9
2022-12-22T11:34:08.357Z,10.8
2022-12-22T11:35:11.929Z,10.9
2022-12-22T11:36:16.351Z,10.8
2022-12-22T11:42:24.292Z,10.8
2022-12-22T11:43:27.707Z,10.8
2022-12-22T11:44:31.720Z,10.8
2022-12-22T11:45:43.882Z,10.8
2022-12-22T11:46:47.604Z,10.7
2022-12-22T11:47:51.988Z,10.8
2022-12-22T11:48:55.720Z,10.8
2022-12-22T11:51:12.504Z,10.8
2022-12-22T11:52:27.970Z,10.8
2022-12-22T11:53:31.484Z,10.8
2022-12-22T11:54:35.946Z,10.8
2022-12-22T11:55:40.068Z,10.8
2022-12-22T11:56:42.968Z,10.8
2022-12-22T11:57:46.932Z,10.8
2022-12-22T11:58:50.807Z,10.8
2022-12-22T11:59:53.656Z,10.7
2022-12-22T12:01:26.103Z,10.7
2022-12-22T12:02:31.100Z,10.7
2022-12-22T12:03:36.029Z,10.7
2022-12-22T12:04:40.075Z,10.7
2022-12-22T12:05:43.721Z,10.7
2022-12-22T12:06:46.860Z,10.7
2022-12-22T12:07:50.027Z,10.7
2022-12-22T12:08:53.126Z,10.8
2022-12-22T12:09:56.390Z,10.7
2022-12-22T12:10:59.653Z,10.8
2022-12-22T12:12:02.563Z,10.8
2022-12-22T12:13:06.737Z,10.8
2022-12-22T12:14:10.214Z,10.8
2022-12-22T12:15:13.305Z,10.8
2022-12-22T12:16:16.720Z,10.8
2022-12-22T12:17:20.298Z,10.7
2022-12-22T12:18:24.057Z,10.7
2022-12-22T12:19:29.795Z,10.8
2022-12-22T12:20:33.102Z,10.8
2022-12-22T12:21:36.469Z,10.8
2022-12-22T12:22:39.319Z,10.8
2022-12-22T12:23:42.933Z,10.8
2022-12-22T12:24:46.631Z,10.8
2022-12-22T12:25:50.356Z,10.8
2022-12-22T12:26:53.062Z,10.8
2022-12-22T12:27:55.806Z,10.8
2022-12-22T12:28:59.362Z,10.8
2022-12-22T12:30:40.018Z,10.8
2022-12-22T12:31:44.027Z,10.8
2022-12-22T12:32:47.857Z,10.8
2022-12-22T12:33:51.280Z,10.8
2022-12-22T12:34:54.011Z,10.8
2022-12-22T12:35:57.272Z,10.8
2022-12-22T12:37:00.632Z,10.8
2022-12-22T12:38:03.138Z,10.8
2022-12-22T12:39:10.046Z,10.8
2022-12-22T12:40:13.573Z,10.8
2022-12-22T12:41:16.320Z,10.8
2022-12-22T12:42:19.628Z,10.8
2022-12-22T12:43:22.860Z,10.8
2022-12-22T12:44:27.001Z,10.8
2022-12-22T12:45:30.046Z,10.8
2022-12-22T12:46:33.387Z,10.8
2022-12-22T12:47:36.628Z,10.8
2022-12-22T12:48:41.278Z,10.8
2022-12-22T12:49:44.664Z,10.8
2022-12-22T12:50:47.474Z,10.8
2022-12-22T12:51:50.346Z,10.8
2022-12-22T12:52:53.683Z,10.8
2022-12-22T12:53:57.795Z,10.8
2022-12-22T12:55:00.838Z,10.8
2022-12-22T12:56:03.610Z,10.8
2022-12-22T12:57:06.778Z,10.8
2022-12-22T12:58:10.265Z,10.9
2022-12-22T12:59:13.323Z,10.9
2022-12-22T13:00:17.467Z,10.9
2022-12-22T13:01:21.116Z,10.8
2022-12-22T13:02:24.855Z,10.9
2022-12-22T13:04:06.149Z,10.8
2022-12-22T13:05:10.177Z,10.9
2022-12-22T13:06:13.448Z,10.9
2022-12-22T13:07:17.161Z,10.8
2022-12-22T13:08:20.564Z,10.9
2022-12-22T13:09:53.771Z,10.9
2022-12-22T13:10:56.624Z,10.8
2022-12-22T13:12:19.726Z,10.9
2022-12-22T13:13:27.485Z,10.8
2022-12-22T13:14:31.201Z,10.9
2022-12-22T13:15:35.393Z,10.9
2022-12-22T13:16:39.672Z,10.8
2022-12-22T13:17:44.110Z,10.8
2022-12-22T13:18:52.826Z,10.8
2022-12-22T13:19:56.301Z,10.8
2022-12-22T13:21:56.664Z,10.8
2022-12-22T13:23:00.369Z,10.8
2022-12-22T13:24:33.202Z,10.8
2022-12-22T13:25:36.522Z,10.7
2022-12-22T13:26:39.336Z,10.7
2022-12-22T13:27:44.043Z,10.8
2022-12-22T13:28:47.675Z,10.8
2022-12-22T13:29:50.813Z,10.8
2022-12-22T13:30:54.894Z,10.8
2022-12-22T13:31:58.514Z,10.8
2022-12-22T13:33:02.428Z,10.8
2022-12-22T13:34:05.256Z,10.8
2022-12-22T13:35:49.217Z,10.8
2022-12-22T13:37:02.106Z,10.8
2022-12-22T13:38:05.429Z,10.8
2022-12-22T13:39:09.228Z,10.8
2022-12-22T13:40:12.256Z,10.8
2022-12-22T13:41:18.022Z,10.8
2022-12-22T13:42:30.381Z,10.8
2022-12-22T13:43:34.136Z,10.8
2022-12-22T13:44:37.316Z,10.8
2022-12-22T13:45:41.037Z,10.8
2022-12-22T13:46:45.155Z,10.8
2022-12-22T13:47:49.077Z,10.8
2022-12-22T13:48:51.820Z,10.8
2022-12-22T13:50:11.389Z,10.8
2022-12-22T13:51:14.897Z,10.8
2022-12-22T13:52:18.118Z,10.8
2022-12-22T13:54:11.408Z,10.8
2022-12-22T13:55:15.976Z,10.8
2022-12-22T13:56:19.411Z,10.8
2022-12-22T13:57:23.177Z,10.8
2022-12-22T13:58:25.938Z,10.8
2022-12-22T13:59:29.656Z,10.8
2022-12-22T14:00:33.262Z,10.8
2022-12-22T14:01:37.021Z,10.7
2022-12-22T14:02:42.219Z,10.8
2022-12-22T14:04:03.678Z,10.7
2022-12-22T14:05:08.265Z,10.7
2022-12-22T14:06:11.641Z,10.8
2022-12-22T14:07:14.851Z,10.8
2022-12-22T14:08:18.233Z,10.7
2022-12-22T14:09:21.663Z,10.8
2022-12-22T14:10:25.431Z,10.8
2022-12-22T14:11:28.715Z,10.8
2022-12-22T14:12:31.523Z,10.8
2022-12-22T14:13:34.323Z,10.8
2022-12-22T14:14:37.372Z,10.8
2022-12-22T14:15:40.832Z,10.8
2022-12-22T14:16:44.491Z,10.8
2022-12-22T14:17:54.126Z,10.8
2022-12-22T14:18:57.586Z,10.8
2022-12-22T14:20:00.649Z,10.8
2022-12-22T14:21:03.393Z,10.8
2022-12-22T14:22:07.206Z,10.9
2022-12-22T14:23:10.060Z,10.9
2022-12-22T14:24:13.413Z,10.9
2022-12-22T14:25:16.917Z,10.9
2022-12-22T14:26:20.212Z,10.9
2022-12-22T14:27:23.376Z,10.9
2022-12-22T14:28:26.852Z,10.9
2022-12-22T14:29:30.055Z,10.9
2022-12-22T14:30:39.836Z,10.9
2022-12-22T14:31:43.220Z,10.9
2022-12-22T14:32:56.229Z,10.8
2022-12-22T14:34:00.420Z,10.8
2022-12-22T14:35:03.615Z,10.8
2022-12-22T14:36:07.076Z,10.7
2022-12-22T14:37:10.484Z,10.7
2022-12-22T14:38:14.583Z,10.7
2022-12-22T14:39:17.759Z,10.7
2022-12-22T14:40:20.563Z,10.7
2022-12-22T14:41:24.572Z,10.7
2022-12-22T14:42:27.962Z,10.7
2022-12-22T14:43:31.091Z,10.6
2022-12-22T14:44:34.228Z,10.6
2022-12-22T14:45:37.535Z,10.6
2022-12-22T14:46:41.465Z,10.6